Terminal Aerodrome Forecast
Issued by NWS

Home | Current Version | Previous Version | Text Only | Print | Product List | Glossary On
Versions: 1 2 3 4 5 6 7 8 9 10 11 12 13 14 15 16 17 18 19 20 21 22 23 24 25 26 27 28 29 30 31 32 33 34 35
000
FTUS43 KLOT 010500
TAFDPA
TAF
KDPA 010537Z 0106/0206 35015G26KT P6SM VCSH OVC040
     FM010800 35012KT P6SM SCT025 BKN040
     FM011400 01011G17KT P6SM BKN035
     FM011900 02011KT P6SM SCT035
     FM020000 VRB03KT P6SM SCT200=

USA.gov is the U.S. government's official web portal to all federal, state and local government web resources and services.